createdAt,value
2018-03-29T00:01:31.866Z,56.73
2018-03-29T00:04:01.247Z,56.50
2018-03-29T00:06:30.562Z,56.60
2018-03-29T00:09:00.042Z,57.41
2018-03-29T00:11:31.012Z,57.57
2018-03-29T00:14:02.663Z,57.08
2018-03-29T00:16:34.113Z,56.02
2018-03-29T00:19:04.641Z,56.65
2018-03-29T00:21:34.705Z,57.76
2018-03-29T00:24:06.830Z,58.02
2018-03-29T00:26:36.821Z,58.06
2018-03-29T00:29:07.150Z,59.36
2018-03-29T00:31:38.382Z,58.03
2018-03-29T00:34:11.326Z,57.58
2018-03-29T00:36:45.006Z,57.32
2018-03-29T00:39:21.426Z,56.38
2018-03-29T00:41:53.884Z,56.64
2018-03-29T00:44:23.935Z,56.80
2018-03-29T00:47:00.208Z,57.60
2018-03-29T00:49:37.868Z,58.50
2018-03-29T00:52:09.757Z,58.29
2018-03-29T00:54:45.538Z,58.31
2018-03-29T00:57:16.826Z,58.19
2018-03-29T00:59:52.227Z,57.65
2018-03-29T01:02:23.712Z,57.42
2018-03-29T01:04:55.493Z,57.64
2018-03-29T01:07:26.752Z,58.17
2018-03-29T01:09:59.021Z,57.62
2018-03-29T01:12:33.782Z,57.05
2018-03-29T01:15:04.736Z,56.17
2018-03-29T01:17:34.887Z,55.69
2018-03-29T01:20:05.139Z,56.19
2018-03-29T01:22:41.755Z,56.65
2018-03-29T01:25:12.007Z,57.16
2018-03-29T01:27:44.837Z,57.71
2018-03-29T01:30:15.714Z,58.76
2018-03-29T01:32:46.465Z,57.93
2018-03-29T01:35:23.239Z,57.82
2018-03-29T01:37:54.420Z,58.31
2018-03-29T01:40:26.804Z,58.01
2018-03-29T01:42:57.963Z,58.33
2018-03-29T01:45:29.057Z,59.24
2018-03-29T01:47:59.540Z,59.49
2018-03-29T01:50:30.883Z,59.69
2018-03-29T01:53:04.617Z,59.27
2018-03-29T01:55:35.801Z,58.97
2018-03-29T01:58:07.889Z,58.88
2018-03-29T02:00:39.238Z,59.27
2018-03-29T02:03:09.442Z,59.71
2018-03-29T02:05:42.605Z,60.32
2018-03-29T02:08:14.215Z,60.53
2018-03-29T02:10:46.869Z,60.28
2018-03-29T02:13:19.964Z,60.87
2018-03-29T02:15:50.814Z,61.14
2018-03-29T02:18:21.734Z,61.15
2018-03-29T02:20:54.508Z,60.92
2018-03-29T02:23:26.095Z,60.91
2018-03-29T02:25:55.694Z,59.60
2018-03-29T02:28:31.757Z,58.65
2018-03-29T02:31:08.375Z,58.84
2018-03-29T02:33:38.661Z,57.51
2018-03-29T02:36:13.590Z,57.42
2018-03-29T02:38:43.821Z,56.63
2018-03-29T02:41:13.955Z,57.16
2018-03-29T02:43:45.187Z,57.66
2018-03-29T02:46:16.972Z,58.12
2018-03-29T02:48:46.904Z,58.42
2018-03-29T02:51:16.636Z,57.92
2018-03-29T02:53:47.652Z,58.71
2018-03-29T02:56:18.761Z,57.72
2018-03-29T02:58:51.204Z,56.65
2018-03-29T03:01:24.075Z,55.72
2018-03-29T03:03:54.524Z,56.45
2018-03-29T03:06:24.529Z,57.06
2018-03-29T03:08:57.613Z,57.04
2018-03-29T03:11:27.600Z,56.79
2018-03-29T03:13:58.779Z,56.84
2018-03-29T03:16:29.440Z,56.72
2018-03-29T03:19:00.351Z,57.94
2018-03-29T03:21:30.396Z,57.48
2018-03-29T03:24:03.371Z,57.51
2018-03-29T03:26:35.275Z,56.89
2018-03-29T03:29:06.770Z,56.08
2018-03-29T03:31:38.591Z,56.45
2018-03-29T03:34:08.765Z,56.57
2018-03-29T03:36:39.882Z,56.57
2018-03-29T03:39:10.780Z,57.97
2018-03-29T03:41:42.284Z,57.42
2018-03-29T03:44:14.196Z,56.77
2018-03-29T03:46:46.834Z,56.86
2018-03-29T03:49:17.896Z,57.52
2018-03-29T03:51:50.658Z,59.10
2018-03-29T03:54:21.743Z,60.37
2018-03-29T03:56:51.887Z,61.69
2018-03-29T03:59:23.010Z,61.32
2018-03-29T04:01:55.129Z,62.30
2018-03-29T04:04:26.243Z,61.80
2018-03-29T04:06:58.840Z,60.83
2018-03-29T04:09:43.698Z,60.00
2018-03-29T04:12:17.563Z,59.35
2018-03-29T04:14:49.962Z,58.76
2018-03-29T04:17:20.504Z,58.80
2018-03-29T04:19:53.314Z,59.55
2018-03-29T04:22:23.832Z,59.82
2018-03-29T04:24:54.836Z,59.39
2018-03-29T04:27:26.778Z,58.20
2018-03-29T04:29:58.214Z,57.50
2018-03-29T04:32:28.627Z,57.69
2018-03-29T04:35:00.405Z,57.34
2018-03-29T04:37:30.684Z,58.09
2018-03-29T04:40:03.209Z,58.70
2018-03-29T04:42:34.018Z,60.27
2018-03-29T04:45:03.962Z,60.15
2018-03-29T04:47:34.404Z,59.56
2018-03-29T04:50:05.366Z,59.97
2018-03-29T04:52:38.343Z,59.82
2018-03-29T04:55:12.562Z,60.70
2018-03-29T04:57:47.297Z,61.49
2018-03-29T05:00:17.448Z,60.78
2018-03-29T05:02:46.776Z,59.55
2018-03-29T05:05:16.124Z,59.65
2018-03-29T05:07:45.791Z,60.08
2018-03-29T05:10:15.115Z,60.43
2018-03-29T05:12:47.007Z,59.61
2018-03-29T05:15:18.512Z,58.97
2018-03-29T05:17:55.555Z,58.54
2018-03-29T05:20:31.315Z,58.48
2018-03-29T05:23:02.855Z,59.04
2018-03-29T05:25:36.169Z,59.10
2018-03-29T05:28:09.900Z,58.23
2018-03-29T05:30:40.781Z,59.19
2018-03-29T05:33:11.872Z,60.04
2018-03-29T05:35:43.167Z,58.91
2018-03-29T05:38:13.163Z,58.71
2018-03-29T05:40:43.247Z,58.02
2018-03-29T05:43:15.070Z,57.38
2018-03-29T05:46:07.312Z,56.24
